Allegri — 9HZP8 — position and weather

sailwx.info

Track history (hours):
 
Tides and Currents Weather Stations Pressure Air Temp Water Temp Dewpoint Dewpoint Depression Visibility Wind Speed Wind Dir Waves Ship Positions

Allegri

Last reported at 2018-Jun-18 07:04 UTC. Time now 2018-Jun-23 12:25 UTC.
Position N 36°60' E 013°22'.

Length 169 m; draft 6.2 m.

Type: Ship (hazmat cat A). MMSI: 256648972.

Date/timePositionNaut miles runAvg speedWind from/ knotsBaromVisibWave heightAir tempDewpointWater temp
2018-Jun-18 07:04N 36°60' E 013°22'113.5
2018-Jun-18 07:00N 36°59' E 013°23'713.6
2018-Jun-18 06:30N 36°56' E 013°31'713.4
2018-Jun-18 06:00N 36°53' E 013°38'713.2
2018-Jun-18 05:30N 36°50' E 013°46'47512.8
2018-Jun-16 16:24N 37°15' E 023°40'814.4
2018-Jun-16 15:50N 37°24' E 023°42'614.1
2018-Jun-16 15:25N 37°29' E 023°44'614.1
2018-Jun-16 15:00N 37°35' E 023°43'714.2
2018-Jun-16 14:31N 37°42' E 023°41'714.2
2018-Jun-16 14:00N 37°48' E 023°37'612.7
2018-Jun-16 13:30N 37°55' E 023°36'3 5.6
2018-Jun-16 13:01N 37°57' E 023°36'0 0.2
2018-Jun-16 12:28N 37°57' E 023°36'0 0.0
2018-Jun-16 11:58N 37°57' E 023°36'0 0.0
2018-Jun-16 11:28N 37°57' E 023°36'0 0.0
2018-Jun-16 10:58N 37°57' E 023°36'0 0.0
2018-Jun-16 10:28N 37°57' E 023°36'0 0.0
2018-Jun-16 09:58N 37°57' E 023°36'0 0.0
2018-Jun-16 09:28N 37°57' E 023°36'0 0.0
2018-Jun-16 08:58N 37°57' E 023°36'0 0.0
2018-Jun-16 08:28N 37°57' E 023°36'0 0.0
2018-Jun-16 07:58N 37°57' E 023°36'0 0.0
2018-Jun-16 07:28N 37°57' E 023°36'0 0.0
2018-Jun-16 06:58N 37°57' E 023°36'0 0.0
2018-Jun-16 06:28N 37°57' E 023°36'0 0.0
2018-Jun-16 05:58N 37°57' E 023°36'0 0.0
2018-Jun-16 05:25N 37°57' E 023°36'0 0.0
2018-Jun-16 04:58N 37°57' E 023°36'0 0.0
2018-Jun-16 04:28N 37°57' E 023°36'0 0.0
2018-Jun-16 03:58N 37°57' E 023°36'0 0.0
2018-Jun-16 03:25N 37°57' E 023°36'0 0.0
2018-Jun-16 02:58N 37°57' E 023°36'0 0.0
2018-Jun-16 02:28N 37°57' E 023°36'0 0.0
2018-Jun-16 01:58N 37°57' E 023°36'0 0.0
2018-Jun-16 01:28N 37°57' E 023°36'0 0.0
2018-Jun-16 00:58N 37°57' E 023°36'0 0.0
2018-Jun-16 00:28N 37°57' E 023°36'0 0.0
2018-Jun-15 23:58N 37°57' E 023°36'0 0.0
2018-Jun-15 23:28N 37°57' E 023°36'0 0.0
2018-Jun-15 22:58N 37°57' E 023°36'0 0.0
2018-Jun-15 22:28N 37°57' E 023°36'0 0.0
2018-Jun-15 21:58N 37°57' E 023°36'0 0.0
2018-Jun-15 21:28N 37°57' E 023°36'0 0.0
2018-Jun-15 20:58N 37°57' E 023°36'0 0.0
2018-Jun-15 20:28N 37°57' E 023°36'0 0.0
2018-Jun-15 19:58N 37°57' E 023°36'0 0.0
2018-Jun-15 19:28N 37°57' E 023°36'0 0.0
2018-Jun-15 18:58N 37°57' E 023°36'0 0.0
2018-Jun-15 18:28N 37°57' E 023°36'0 0.0
2018-Jun-15 17:58N 37°57' E 023°36'0 0.0
2018-Jun-15 17:28N 37°57' E 023°36'0 0.0
2018-Jun-15 16:58N 37°57' E 023°36'0 0.0
2018-Jun-15 16:30N 37°57' E 023°36'2 4.3
2018-Jun-15 16:00N 37°55' E 023°36'1 1.5
2018-Jun-15 15:30N 37°55' E 023°36'0 0.7
2018-Jun-15 15:00N 37°54' E 023°36'0 0.8
2018-Jun-15 14:30N 37°54' E 023°36'4 7.9
2018-Jun-15 14:01N 37°51' E 023°39'714.9
2018-Jun-15 13:31N 37°44' E 023°44'714.2
2018-Jun-15 13:00N 37°39' E 023°49'26614.3
2018-Jun-14 18:21N 40°35' E 028°06'1337.5
2018-Jun-14 18:00N 40°29' E 028°22'23 1.3
2018-Jun-14 00:07N 40°26' E 028°52'112.3
2018-Jun-14 00:00N 40°27' E 028°50'612.4
2018-Jun-13 23:30N 40°30' E 028°43'814.1
2018-Jun-13 22:58N 40°37' E 028°45'714.8
2018-Jun-13 22:30N 40°44' E 028°48'714.4
2018-Jun-13 22:01N 40°50' E 028°51'611.5
2018-Jun-13 21:29N 40°56' E 028°53'0 0.6
2018-Jun-13 20:46N 40°57' E 028°53'0 0.1
2018-Jun-13 20:28N 40°57' E 028°53'0 0.0
2018-Jun-13 19:52N 40°57' E 028°53'0 0.0
2018-Jun-13 19:19N 40°57' E 028°53'0 0.0
2018-Jun-13 18:58N 40°57' E 028°53'0 0.0
2018-Jun-13 18:22N 40°57' E 028°53'0 0.0
2018-Jun-13 17:56N 40°57' E 028°53'0 0.0
2018-Jun-13 17:30N 40°57' E 028°53'0 0.0
2018-Jun-13 17:00N 40°57' E 028°53'0 0.0
2018-Jun-13 16:23N 40°57' E 028°53'1 0.7
2018-Jun-13 14:30N 40°56' E 028°51'4 8.4
2018-Jun-13 14:00N 40°56' E 028°46'32 1.0
2018-Jun-12 07:15N 41°24' E 029°07'10 3.7
2018-Jun-12 04:27N 41°34' E 029°06'0 0.1
2018-Jun-12 02:51N 41°34' E 029°06'0 0.1
2018-Jun-12 02:28N 41°34' E 029°06'0 0.1
2018-Jun-12 02:00N 41°34' E 029°06'0 0.2
2018-Jun-12 01:30N 41°34' E 029°06'0 0.6
2018-Jun-12 01:01N 41°35' E 029°06'2 3.6
2018-Jun-12 00:30N 41°36' E 029°05'713.7
2018-Jun-12 00:00N 41°43' E 029°04'714.2
2018-Jun-11 23:30N 41°50' E 029°03'714.5
2018-Jun-11 23:00N 41°58' E 029°02'714.7
2018-Jun-11 22:30N 42°05' E 029°01'714.7
2018-Jun-11 22:00N 42°12' E 029°00'714.6
2018-Jun-11 21:30N 42°19' E 028°60'714.9
2018-Jun-11 21:01N 42°27' E 028°59'4114.6
2018-Jun-11 18:13N 43°08' E 028°54'314.8
2018-Jun-11 18:00N 43°11' E 028°53'714.4
2018-Jun-11 17:31N 43°18' E 028°53'714.2
2018-Jun-11 17:01N 43°25' E 028°52'714.0
2018-Jun-11 16:30N 43°32' E 028°51'714.0
2018-Jun-11 16:01N 43°39' E 028°50'714.1
2018-Jun-11 15:31N 43°46' E 028°49'714.1
2018-Jun-11 15:00N 43°53' E 028°49'713.6
2018-Jun-11 14:31N 43°60' E 028°48'713.2
2018-Jun-11 14:00N 44°05' E 028°43'4 7.6
2018-Jun-11 13:30N 44°09' E 028°40'1 2.3
2018-Jun-11 13:00N 44°09' E 028°39'0 0.1
2018-Jun-11 12:30N 44°09' E 028°39'0 0.0
2018-Jun-11 12:00N 44°09' E 028°39'0 0.0
2018-Jun-11 11:30N 44°09' E 028°39'0 0.0
2018-Jun-11 11:00N 44°09' E 028°39'0 0.0
2018-Jun-11 10:27N 44°09' E 028°39'0 0.0
2018-Jun-11 10:00N 44°09' E 028°39'0 0.0
2018-Jun-11 09:30N 44°09' E 028°39'0 0.0
2018-Jun-11 09:00N 44°09' E 028°39'0 0.0
2018-Jun-11 08:30N 44°09' E 028°39'0 0.0
2018-Jun-11 08:00N 44°09' E 028°39'0 0.0
2018-Jun-11 07:30N 44°09' E 028°39'0 0.0
2018-Jun-11 07:00N 44°09' E 028°39'0 0.0
2018-Jun-11 06:30N 44°09' E 028°39'0 0.0
2018-Jun-11 06:00N 44°09' E 028°39'0 0.0
2018-Jun-11 05:30N 44°09' E 028°39'0 0.0
2018-Jun-11 05:00N 44°09' E 028°39'0 0.0
2018-Jun-11 04:30N 44°09' E 028°39'0 0.0
2018-Jun-11 04:00N 44°09' E 028°39'0 0.0
2018-Jun-11 03:30N 44°09' E 028°39'0 0.0
2018-Jun-11 03:00N 44°09' E 028°39'0 0.0
2018-Jun-11 02:30N 44°09' E 028°39'0 0.0
2018-Jun-11 02:00N 44°09' E 028°39'0 0.0
2018-Jun-11 01:30N 44°09' E 028°39'0 0.0
2018-Jun-11 01:00N 44°09' E 028°39'0 0.0
2018-Jun-11 00:30N 44°09' E 028°39'0 0.0
2018-Jun-11 00:00N 44°09' E 028°39'0 0.0
2018-Jun-10 23:30N 44°09' E 028°39'0 0.0
2018-Jun-10 23:00N 44°09' E 028°39'0 0.0
2018-Jun-10 22:30N 44°09' E 028°39'0 0.0
2018-Jun-10 22:00N 44°09' E 028°39'0 0.0
2018-Jun-10 21:27N 44°09' E 028°39'0 0.0
2018-Jun-10 21:00N 44°09' E 028°39'0 0.0
2018-Jun-10 20:30N 44°09' E 028°39'0 0.0
2018-Jun-10 19:57N 44°09' E 028°39'0 0.0
2018-Jun-10 19:30N 44°09' E 028°39'0 0.0
2018-Jun-10 19:00N 44°09' E 028°39'0 0.0
2018-Jun-10 18:30N 44°09' E 028°39'0 0.0
2018-Jun-10 18:00N 44°09' E 028°39'0 0.0
2018-Jun-10 17:30N 44°09' E 028°39'0 0.0
2018-Jun-10 17:00N 44°09' E 028°39'0 0.0
2018-Jun-10 16:30N 44°09' E 028°39'0 0.0
2018-Jun-10 16:00N 44°09' E 028°39'0 0.0
2018-Jun-10 15:30N 44°09' E 028°39'0 0.0
2018-Jun-10 14:57N 44°09' E 028°39'0 0.0
2018-Jun-10 14:30N 44°09' E 028°39'0 0.0
2018-Jun-10 13:30N 44°09' E 028°39'0 0.0
2018-Jun-10 13:00N 44°09' E 028°39'0 0.0
2018-Jun-10 12:30N 44°09' E 028°39'0 0.0
2018-Jun-10 12:00N 44°09' E 028°39'0 0.0
2018-Jun-10 11:30N 44°09' E 028°39'0 0.0
2018-Jun-10 11:00N 44°09' E 028°39'0 0.1
2018-Jun-10 10:30N 44°09' E 028°39'1 1.9
2018-Jun-10 10:00N 44°09' E 028°40'3 5.5
2018-Jun-10 09:30N 44°07' E 028°42'4 8.0
2018-Jun-10 09:00N 44°03' E 028°45'713.2
2018-Jun-10 08:30N 43°58' E 028°51'714.0
2018-Jun-10 08:00N 43°51' E 028°50'713.8
2018-Jun-10 07:30N 43°44' E 028°49'713.7
2018-Jun-10 07:00N 43°38' E 028°47'713.5
2018-Jun-10 06:30N 43°31' E 028°44'713.3
2018-Jun-10 06:00N 43°26' E 028°38'713.4
2018-Jun-10 05:30N 43°21' E 028°32'613.2
2018-Jun-10 05:01N 43°17' E 028°25'714.0
2018-Jun-10 04:30N 43°15' E 028°16'714.3
2018-Jun-10 04:01N 43°12' E 028°06'713.1
2018-Jun-10 03:30N 43°11' E 027°57'2 0.1
2018-Jun-09 05:59N 43°11' E 028°00'610.8
2018-Jun-09 05:29N 43°06' E 028°00'3 4.6
2018-Jun-09 04:51N 43°05' E 027°57'0 0.0
2018-Jun-09 04:30N 43°05' E 027°57'0 0.0
2018-Jun-09 03:48N 43°05' E 027°57'0 0.0
2018-Jun-09 03:30N 43°05' E 027°57'0 0.0
2018-Jun-09 03:00N 43°05' E 027°57'0 0.0
2018-Jun-09 02:09N 43°05' E 027°57'0 0.0
2018-Jun-09 02:00N 43°05' E 027°57'0 0.0
2018-Jun-09 01:30N 43°05' E 027°57'0 0.0
2018-Jun-09 00:57N 43°05' E 027°57'0 0.0
2018-Jun-09 00:15N 43°05' E 027°57'0 0.0
2018-Jun-08 23:54N 43°05' E 027°57'0 0.0
2018-Jun-08 23:30N 43°05' E 027°57'0 0.0
2018-Jun-08 23:00N 43°05' E 027°57'0 0.0
2018-Jun-08 22:27N 43°05' E 027°57'0 0.0
2018-Jun-08 22:00N 43°05' E 027°57'0 0.0
2018-Jun-08 20:54N 43°05' E 027°57'0 0.0
2018-Jun-08 20:30N 43°05' E 027°57'0 0.0
2018-Jun-08 19:57N 43°05' E 027°57'0 0.3
2018-Jun-08 19:22N 43°05' E 027°57'1 3.1
2018-Jun-08 18:59N 43°03' E 027°57'611.4
2018-Jun-08 18:30N 42°58' E 027°59'715.0
2018-Jun-08 18:00N 42°51' E 027°59'714.2
2018-Jun-08 17:30N 42°44' E 027°58'713.3
2018-Jun-08 17:00N 42°37' E 028°00'914.5
2018-Jun-08 16:22N 42°30' E 028°07'514.1
2018-Jun-08 16:00N 42°25' E 028°12'714.4
2018-Jun-08 15:30N 42°20' E 028°17'814.9
2018-Jun-08 14:59N 42°13' E 028°23'714.9
2018-Jun-08 14:30N 42°07' E 028°29'814.9
2018-Jun-08 13:58N 42°01' E 028°35'814.9
2018-Jun-08 13:28N 41°55' E 028°41'714.6
2018-Jun-08 12:59N 41°49' E 028°46'914.2
2018-Jun-08 12:22N 41°42' E 028°53'514.4
2018-Jun-08 12:00N 41°38' E 028°57'2214.3
2018-Jun-08 10:30N 41°20' E 029°13'714.6
2018-Jun-08 09:59N 41°14' E 029°08'610.9
2018-Jun-08 09:29N 41°09' E 029°03'13 9.7
2018-Jun-08 08:11N 40°57' E 028°59'610.5
2018-Jun-08 07:38N 40°52' E 028°55'1 9.6
2018-Jun-08 07:30N 40°51' E 028°55'  
Track history (hours):
 
Tides and Currents Weather Stations Pressure Air Temp Water Temp Dewpoint Dewpoint Depression Visibility Wind Speed Wind Dir Waves Ship Positions

Allegri

Last reported at 2018-Jun-18 07:04 UTC. Time now 2018-Jun-23 12:25 UTC.
Position N 36°60' E 013°22'.

Length 169 m; draft 6.2 m.

Type: Ship (hazmat cat A). MMSI: 256648972.

Date/timePositionNaut miles runAvg speedWind from/ knotsBaromVisibWave heightAir tempDewpointWater temp
2018-Jun-18 07:04N 36°60' E 013°22'113.5
2018-Jun-18 07:00N 36°59' E 013°23'713.6
2018-Jun-18 06:30N 36°56' E 013°31'713.4
2018-Jun-18 06:00N 36°53' E 013°38'713.2
2018-Jun-18 05:30N 36°50' E 013°46'47512.8
2018-Jun-16 16:24N 37°15' E 023°40'814.4
2018-Jun-16 15:50N 37°24' E 023°42'614.1
2018-Jun-16 15:25N 37°29' E 023°44'614.1
2018-Jun-16 15:00N 37°35' E 023°43'714.2
2018-Jun-16 14:31N 37°42' E 023°41'714.2
2018-Jun-16 14:00N 37°48' E 023°37'612.7
2018-Jun-16 13:30N 37°55' E 023°36'3 5.6
2018-Jun-16 13:01N 37°57' E 023°36'0 0.2
2018-Jun-16 12:28N 37°57' E 023°36'0 0.0
2018-Jun-16 11:58N 37°57' E 023°36'0 0.0
2018-Jun-16 11:28N 37°57' E 023°36'0 0.0
2018-Jun-16 10:58N 37°57' E 023°36'0 0.0
2018-Jun-16 10:28N 37°57' E 023°36'0 0.0
2018-Jun-16 09:58N 37°57' E 023°36'0 0.0
2018-Jun-16 09:28N 37°57' E 023°36'0 0.0
2018-Jun-16 08:58N 37°57' E 023°36'0 0.0
2018-Jun-16 08:28N 37°57' E 023°36'0 0.0
2018-Jun-16 07:58N 37°57' E 023°36'0 0.0
2018-Jun-16 07:28N 37°57' E 023°36'0 0.0
2018-Jun-16 06:58N 37°57' E 023°36'0 0.0
2018-Jun-16 06:28N 37°57' E 023°36'0 0.0
2018-Jun-16 05:58N 37°57' E 023°36'0 0.0
2018-Jun-16 05:25N 37°57' E 023°36'0 0.0
2018-Jun-16 04:58N 37°57' E 023°36'0 0.0
2018-Jun-16 04:28N 37°57' E 023°36'0 0.0
2018-Jun-16 03:58N 37°57' E 023°36'0 0.0
2018-Jun-16 03:25N 37°57' E 023°36'0 0.0
2018-Jun-16 02:58N 37°57' E 023°36'0 0.0
2018-Jun-16 02:28N 37°57' E 023°36'0 0.0
2018-Jun-16 01:58N 37°57' E 023°36'0 0.0
2018-Jun-16 01:28N 37°57' E 023°36'0 0.0
2018-Jun-16 00:58N 37°57' E 023°36'0 0.0
2018-Jun-16 00:28N 37°57' E 023°36'0 0.0
2018-Jun-15 23:58N 37°57' E 023°36'0 0.0
2018-Jun-15 23:28N 37°57' E 023°36'0 0.0
2018-Jun-15 22:58N 37°57' E 023°36'0 0.0
2018-Jun-15 22:28N 37°57' E 023°36'0 0.0
2018-Jun-15 21:58N 37°57' E 023°36'0 0.0
2018-Jun-15 21:28N 37°57' E 023°36'0 0.0
2018-Jun-15 20:58N 37°57' E 023°36'0 0.0
2018-Jun-15 20:28N 37°57' E 023°36'0 0.0
2018-Jun-15 19:58N 37°57' E 023°36'0 0.0
2018-Jun-15 19:28N 37°57' E 023°36'0 0.0
2018-Jun-15 18:58N 37°57' E 023°36'0 0.0
2018-Jun-15 18:28N 37°57' E 023°36'0 0.0
2018-Jun-15 17:58N 37°57' E 023°36'0 0.0
2018-Jun-15 17:28N 37°57' E 023°36'0 0.0
2018-Jun-15 16:58N 37°57' E 023°36'0 0.0
2018-Jun-15 16:30N 37°57' E 023°36'2 4.3
2018-Jun-15 16:00N 37°55' E 023°36'1 1.5
2018-Jun-15 15:30N 37°55' E 023°36'0 0.7
2018-Jun-15 15:00N 37°54' E 023°36'0 0.8
2018-Jun-15 14:30N 37°54' E 023°36'4 7.9
2018-Jun-15 14:01N 37°51' E 023°39'714.9
2018-Jun-15 13:31N 37°44' E 023°44'714.2
2018-Jun-15 13:00N 37°39' E 023°49'26614.3
2018-Jun-14 18:21N 40°35' E 028°06'1337.5
2018-Jun-14 18:00N 40°29' E 028°22'23 1.3
2018-Jun-14 00:07N 40°26' E 028°52'112.3
2018-Jun-14 00:00N 40°27' E 028°50'612.4
2018-Jun-13 23:30N 40°30' E 028°43'814.1
2018-Jun-13 22:58N 40°37' E 028°45'714.8
2018-Jun-13 22:30N 40°44' E 028°48'714.4
2018-Jun-13 22:01N 40°50' E 028°51'611.5
2018-Jun-13 21:29N 40°56' E 028°53'0 0.6
2018-Jun-13 20:46N 40°57' E 028°53'0 0.1
2018-Jun-13 20:28N 40°57' E 028°53'0 0.0
2018-Jun-13 19:52N 40°57' E 028°53'0 0.0
2018-Jun-13 19:19N 40°57' E 028°53'0 0.0
2018-Jun-13 18:58N 40°57' E 028°53'0 0.0
2018-Jun-13 18:22N 40°57' E 028°53'0 0.0
2018-Jun-13 17:56N 40°57' E 028°53'0 0.0
2018-Jun-13 17:30N 40°57' E 028°53'0 0.0
2018-Jun-13 17:00N 40°57' E 028°53'0 0.0
2018-Jun-13 16:23N 40°57' E 028°53'1 0.7
2018-Jun-13 14:30N 40°56' E 028°51'4 8.4
2018-Jun-13 14:00N 40°56' E 028°46'32 1.0
2018-Jun-12 07:15N 41°24' E 029°07'10 3.7
2018-Jun-12 04:27N 41°34' E 029°06'0 0.1
2018-Jun-12 02:51N 41°34' E 029°06'0 0.1
2018-Jun-12 02:28N 41°34' E 029°06'0 0.1
2018-Jun-12 02:00N 41°34' E 029°06'0 0.2
2018-Jun-12 01:30N 41°34' E 029°06'0 0.6
2018-Jun-12 01:01N 41°35' E 029°06'2 3.6
2018-Jun-12 00:30N 41°36' E 029°05'713.7
2018-Jun-12 00:00N 41°43' E 029°04'714.2
2018-Jun-11 23:30N 41°50' E 029°03'714.5
2018-Jun-11 23:00N 41°58' E 029°02'714.7
2018-Jun-11 22:30N 42°05' E 029°01'714.7
2018-Jun-11 22:00N 42°12' E 029°00'714.6
2018-Jun-11 21:30N 42°19' E 028°60'714.9
2018-Jun-11 21:01N 42°27' E 028°59'4114.6
2018-Jun-11 18:13N 43°08' E 028°54'314.8
2018-Jun-11 18:00N 43°11' E 028°53'714.4
2018-Jun-11 17:31N 43°18' E 028°53'714.2
2018-Jun-11 17:01N 43°25' E 028°52'714.0
2018-Jun-11 16:30N 43°32' E 028°51'714.0
2018-Jun-11 16:01N 43°39' E 028°50'714.1
2018-Jun-11 15:31N 43°46' E 028°49'714.1
2018-Jun-11 15:00N 43°53' E 028°49'713.6
2018-Jun-11 14:31N 43°60' E 028°48'713.2
2018-Jun-11 14:00N 44°05' E 028°43'4 7.6
2018-Jun-11 13:30N 44°09' E 028°40'1 2.3
2018-Jun-11 13:00N 44°09' E 028°39'0 0.1
2018-Jun-11 12:30N 44°09' E 028°39'0 0.0
2018-Jun-11 12:00N 44°09' E 028°39'0 0.0
2018-Jun-11 11:30N 44°09' E 028°39'0 0.0
2018-Jun-11 11:00N 44°09' E 028°39'0 0.0
2018-Jun-11 10:27N 44°09' E 028°39'0 0.0
2018-Jun-11 10:00N 44°09' E 028°39'0 0.0
2018-Jun-11 09:30N 44°09' E 028°39'0 0.0
2018-Jun-11 09:00N 44°09' E 028°39'0 0.0
2018-Jun-11 08:30N 44°09' E 028°39'0 0.0
2018-Jun-11 08:00N 44°09' E 028°39'0 0.0
2018-Jun-11 07:30N 44°09' E 028°39'0 0.0
2018-Jun-11 07:00N 44°09' E 028°39'0 0.0
2018-Jun-11 06:30N 44°09' E 028°39'0 0.0
2018-Jun-11 06:00N 44°09' E 028°39'0 0.0
2018-Jun-11 05:30N 44°09' E 028°39'0 0.0
2018-Jun-11 05:00N 44°09' E 028°39'0 0.0
2018-Jun-11 04:30N 44°09' E 028°39'0 0.0
2018-Jun-11 04:00N 44°09' E 028°39'0 0.0
2018-Jun-11 03:30N 44°09' E 028°39'0 0.0
2018-Jun-11 03:00N 44°09' E 028°39'0 0.0
2018-Jun-11 02:30N 44°09' E 028°39'0 0.0
2018-Jun-11 02:00N 44°09' E 028°39'0 0.0
2018-Jun-11 01:30N 44°09' E 028°39'0 0.0
2018-Jun-11 01:00N 44°09' E 028°39'0 0.0
2018-Jun-11 00:30N 44°09' E 028°39'0 0.0
2018-Jun-11 00:00N 44°09' E 028°39'0 0.0
2018-Jun-10 23:30N 44°09' E 028°39'0 0.0
2018-Jun-10 23:00N 44°09' E 028°39'0 0.0
2018-Jun-10 22:30N 44°09' E 028°39'0 0.0
2018-Jun-10 22:00N 44°09' E 028°39'0 0.0
2018-Jun-10 21:27N 44°09' E 028°39'0 0.0
2018-Jun-10 21:00N 44°09' E 028°39'0 0.0
2018-Jun-10 20:30N 44°09' E 028°39'0 0.0
2018-Jun-10 19:57N 44°09' E 028°39'0 0.0
2018-Jun-10 19:30N 44°09' E 028°39'0 0.0
2018-Jun-10 19:00N 44°09' E 028°39'0 0.0
2018-Jun-10 18:30N 44°09' E 028°39'0 0.0
2018-Jun-10 18:00N 44°09' E 028°39'0 0.0
2018-Jun-10 17:30N 44°09' E 028°39'0 0.0
2018-Jun-10 17:00N 44°09' E 028°39'0 0.0
2018-Jun-10 16:30N 44°09' E 028°39'0 0.0
2018-Jun-10 16:00N 44°09' E 028°39'0 0.0
2018-Jun-10 15:30N 44°09' E 028°39'0 0.0
2018-Jun-10 14:57N 44°09' E 028°39'0 0.0
2018-Jun-10 14:30N 44°09' E 028°39'0 0.0
2018-Jun-10 13:30N 44°09' E 028°39'0 0.0
2018-Jun-10 13:00N 44°09' E 028°39'0 0.0
2018-Jun-10 12:30N 44°09' E 028°39'0 0.0
2018-Jun-10 12:00N 44°09' E 028°39'0 0.0
2018-Jun-10 11:30N 44°09' E 028°39'0 0.0
2018-Jun-10 11:00N 44°09' E 028°39'0 0.1
2018-Jun-10 10:30N 44°09' E 028°39'1 1.9
2018-Jun-10 10:00N 44°09' E 028°40'3 5.5
2018-Jun-10 09:30N 44°07' E 028°42'4 8.0
2018-Jun-10 09:00N 44°03' E 028°45'713.2
2018-Jun-10 08:30N 43°58' E 028°51'714.0
2018-Jun-10 08:00N 43°51' E 028°50'713.8
2018-Jun-10 07:30N 43°44' E 028°49'713.7
2018-Jun-10 07:00N 43°38' E 028°47'713.5
2018-Jun-10 06:30N 43°31' E 028°44'713.3
2018-Jun-10 06:00N 43°26' E 028°38'713.4
2018-Jun-10 05:30N 43°21' E 028°32'613.2
2018-Jun-10 05:01N 43°17' E 028°25'714.0
2018-Jun-10 04:30N 43°15' E 028°16'714.3
2018-Jun-10 04:01N 43°12' E 028°06'713.1
2018-Jun-10 03:30N 43°11' E 027°57'2 0.1
2018-Jun-09 05:59N 43°11' E 028°00'610.8
2018-Jun-09 05:29N 43°06' E 028°00'3 4.6
2018-Jun-09 04:51N 43°05' E 027°57'0 0.0
2018-Jun-09 04:30N 43°05' E 027°57'0 0.0
2018-Jun-09 03:48N 43°05' E 027°57'0 0.0
2018-Jun-09 03:30N 43°05' E 027°57'0 0.0
2018-Jun-09 03:00N 43°05' E 027°57'0 0.0
2018-Jun-09 02:09N 43°05' E 027°57'0 0.0
2018-Jun-09 02:00N 43°05' E 027°57'0 0.0
2018-Jun-09 01:30N 43°05' E 027°57'0 0.0
2018-Jun-09 00:57N 43°05' E 027°57'0 0.0
2018-Jun-09 00:15N 43°05' E 027°57'0 0.0
2018-Jun-08 23:54N 43°05' E 027°57'0 0.0
2018-Jun-08 23:30N 43°05' E 027°57'0 0.0
2018-Jun-08 23:00N 43°05' E 027°57'0 0.0
2018-Jun-08 22:27N 43°05' E 027°57'0 0.0
2018-Jun-08 22:00N 43°05' E 027°57'0 0.0
2018-Jun-08 20:54N 43°05' E 027°57'0 0.0
2018-Jun-08 20:30N 43°05' E 027°57'0 0.0
2018-Jun-08 19:57N 43°05' E 027°57'0 0.3
2018-Jun-08 19:22N 43°05' E 027°57'1 3.1
2018-Jun-08 18:59N 43°03' E 027°57'611.4
2018-Jun-08 18:30N 42°58' E 027°59'715.0
2018-Jun-08 18:00N 42°51' E 027°59'714.2
2018-Jun-08 17:30N 42°44' E 027°58'713.3
2018-Jun-08 17:00N 42°37' E 028°00'914.5
2018-Jun-08 16:22N 42°30' E 028°07'514.1
2018-Jun-08 16:00N 42°25' E 028°12'714.4
2018-Jun-08 15:30N 42°20' E 028°17'814.9
2018-Jun-08 14:59N 42°13' E 028°23'714.9
2018-Jun-08 14:30N 42°07' E 028°29'814.9
2018-Jun-08 13:58N 42°01' E 028°35'814.9
2018-Jun-08 13:28N 41°55' E 028°41'714.6
2018-Jun-08 12:59N 41°49' E 028°46'914.2
2018-Jun-08 12:22N 41°42' E 028°53'514.4
2018-Jun-08 12:00N 41°38' E 028°57'2214.3
2018-Jun-08 10:30N 41°20' E 029°13'714.6
2018-Jun-08 09:59N 41°14' E 029°08'610.9
2018-Jun-08 09:29N 41°09' E 029°03'13 9.7
2018-Jun-08 08:11N 40°57' E 028°59'610.5
2018-Jun-08 07:38N 40°52' E 028°55'1 9.6
2018-Jun-08 07:30N 40°51' E 028°55'  

Dump ship's entire track history